createdAt,value
2018-11-20T00:00:48.683Z,6.17
2018-11-20T00:03:37.338Z,7.17
2018-11-20T00:06:26.497Z,6.53
2018-11-20T00:09:15.124Z,7.40
2018-11-20T00:12:03.768Z,7.73
2018-11-20T00:14:52.396Z,6.37
2018-11-20T00:17:41.140Z,7.75
2018-11-20T00:20:29.764Z,6.13
2018-11-20T00:23:35.955Z,8.30
2018-11-20T00:26:24.592Z,6.10
2018-11-20T00:29:13.512Z,6.67
2018-11-20T00:32:02.234Z,6.60
2018-11-20T00:34:43.913Z,6.60
2018-11-20T00:37:32.786Z,6.47
2018-11-20T00:40:21.470Z,5.72
2018-11-20T00:43:10.122Z,7.53
2018-11-20T00:45:58.741Z,5.93
2018-11-20T00:48:47.588Z,6.13
2018-11-20T00:51:36.179Z,6.27
2018-11-20T00:54:25.118Z,6.37
2018-11-20T00:57:13.744Z,8.43
2018-11-20T01:00:02.439Z,7.67
2018-11-20T01:02:51.291Z,7.30
2018-11-20T01:05:39.931Z,6.58
2018-11-20T01:08:16.053Z,5.97
2018-11-20T01:11:04.929Z,9.10
2018-11-20T01:13:53.566Z,6.57
2018-11-20T01:16:42.302Z,7.27
2018-11-20T01:22:12.090Z,6.93
2018-11-20T01:25:00.807Z,7.30
2018-11-20T01:27:41.083Z,7.90
2018-11-20T01:30:29.727Z,7.27
2018-11-20T01:33:18.354Z,8.47
2018-11-20T01:36:07.026Z,5.72
2018-11-20T01:38:55.918Z,8.80
2018-11-20T01:41:44.536Z,8.17
2018-11-20T01:44:33.235Z,8.57
2018-11-20T01:47:22.074Z,7.73
2018-11-20T01:50:29.721Z,8.27
2018-11-20T01:53:18.343Z,7.23
2018-11-20T01:56:06.995Z,8.90
2018-11-20T01:58:55.642Z,10.43
2018-11-20T02:01:44.422Z,8.37
2018-11-20T02:04:52.094Z,8.53
2018-11-20T02:07:53.016Z,9.23
2018-11-20T02:10:41.663Z,10.37
2018-11-20T02:14:08.370Z,9.53
2018-11-20T02:17:00.103Z,8.80
2018-11-20T02:19:48.809Z,9.98
2018-11-20T02:22:25.926Z,11.20
2018-11-20T02:25:14.560Z,8.53
2018-11-20T02:28:03.402Z,8.90
2018-11-20T02:30:53.020Z,9.53
2018-11-20T02:33:42.100Z,10.23
2018-11-20T02:36:30.744Z,8.40
2018-11-20T02:39:19.363Z,8.80
2018-11-20T02:42:08.020Z,10.07
2018-11-20T02:44:56.681Z,8.93
2018-11-20T02:47:45.458Z,8.43
2018-11-20T02:50:53.128Z,8.50
2018-11-20T02:53:41.943Z,9.10
2018-11-20T02:56:30.562Z,9.60
2018-11-20T02:59:19.174Z,8.90
2018-11-20T03:02:07.816Z,8.83
2018-11-20T03:04:56.442Z,9.50
2018-11-20T03:07:57.537Z,8.43
2018-11-20T03:10:46.428Z,10.50
2018-11-20T03:13:35.075Z,11.38
2018-11-20T03:16:23.791Z,7.30
2018-11-20T03:19:12.608Z,9.90
2018-11-20T03:22:01.588Z,10.80
2018-11-20T03:24:51.062Z,10.45
2018-11-20T03:27:32.674Z,11.20
2018-11-20T03:30:59.402Z,8.10
2018-11-20T03:33:48.029Z,9.00
2018-11-20T03:36:36.650Z,8.28
2018-11-20T03:39:28.084Z,8.80
2018-11-20T03:42:16.730Z,9.13
2018-11-20T03:44:55.620Z,12.40
2018-11-20T03:47:44.256Z,9.57
2018-11-20T03:50:32.873Z,12.80
2018-11-20T03:53:12.162Z,8.70
2018-11-20T03:55:48.000Z,8.63
2018-11-20T03:58:36.624Z,10.30
2018-11-20T04:01:17.530Z,10.53
2018-11-20T04:03:56.569Z,10.20
2018-11-20T04:06:45.203Z,8.33
2018-11-20T04:09:33.848Z,10.50
2018-11-20T04:12:22.519Z,9.20
2018-11-20T04:15:11.136Z,9.10
2018-11-20T04:17:59.858Z,9.23
2018-11-20T04:21:07.477Z,8.20
2018-11-20T04:23:47.291Z,7.83
2018-11-20T04:26:35.912Z,9.07
2018-11-20T04:29:24.589Z,8.30
2018-11-20T04:32:32.301Z,9.05
2018-11-20T04:35:21.951Z,8.53
2018-11-20T04:38:10.591Z,9.00
2018-11-20T04:40:59.240Z,8.60
2018-11-20T04:43:47.970Z,10.38
2018-11-20T04:46:36.610Z,10.63
2018-11-20T04:49:25.380Z,11.80
2018-11-20T04:52:14.296Z,9.40
2018-11-20T04:55:02.948Z,9.40
2018-11-20T04:57:51.576Z,8.43
2018-11-20T05:00:40.229Z,10.48
2018-11-20T05:03:29.078Z,9.20
2018-11-20T05:06:17.856Z,8.90
2018-11-20T05:09:06.508Z,6.83
2018-11-20T05:11:55.122Z,8.65
2018-11-20T05:14:44.679Z,8.83
2018-11-20T05:17:33.308Z,8.50
2018-11-20T05:20:22.866Z,9.37
2018-11-20T05:23:18.498Z,8.60
2018-11-20T05:26:07.135Z,11.10
2018-11-20T05:28:55.784Z,10.07
2018-11-20T05:31:44.414Z,9.80
2018-11-20T05:34:33.035Z,9.55
2018-11-20T05:37:21.646Z,10.77
2018-11-20T05:39:58.540Z,9.83
2018-11-20T05:42:55.875Z,11.90
2018-11-20T05:45:44.511Z,11.48
2018-11-20T05:48:31.611Z,9.47
2018-11-20T05:51:12.461Z,9.40
2018-11-20T05:54:01.110Z,10.08
2018-11-20T05:56:37.968Z,11.88
2018-11-20T05:59:26.605Z,10.83
2018-11-20T06:02:15.258Z,8.87
2018-11-20T06:05:03.884Z,11.30
2018-11-20T06:07:52.656Z,10.07
2018-11-20T06:10:41.310Z,10.53
2018-11-20T06:13:30.096Z,11.03
2018-11-20T06:16:18.615Z,11.50
2018-11-20T06:19:07.816Z,11.60
2018-11-20T06:21:56.371Z,14.65
2018-11-20T06:24:45.790Z,11.60
2018-11-20T06:27:34.694Z,10.63
2018-11-20T06:30:23.458Z,11.17
2018-11-20T06:33:12.087Z,10.82
2018-11-20T06:36:00.742Z,12.80
2018-11-20T06:38:49.368Z,12.43
2018-11-20T06:41:38.282Z,11.43
2018-11-20T06:47:29.592Z,10.93
2018-11-20T06:50:18.269Z,10.50
2018-11-20T06:53:07.153Z,12.17
2018-11-20T06:55:55.828Z,7.55
2018-11-20T06:58:44.448Z,9.97
2018-11-20T07:01:33.498Z,12.37
2018-11-20T07:04:22.065Z,11.83
2018-11-20T07:07:10.869Z,11.60
2018-11-20T07:09:59.389Z,10.80
2018-11-20T07:12:48.060Z,11.83
2018-11-20T07:15:37.512Z,10.58
2018-11-20T07:18:26.500Z,9.10
2018-11-20T07:21:01.521Z,13.70
2018-11-20T07:23:49.482Z,10.40
2018-11-20T07:26:34.137Z,9.43
2018-11-20T07:29:28.573Z,8.33
2018-11-20T07:32:17.396Z,11.88
2018-11-20T07:34:54.197Z,10.37
2018-11-20T07:37:42.849Z,9.30
2018-11-20T07:40:31.494Z,10.23
2018-11-20T07:43:20.335Z,11.05
2018-11-20T07:46:08.872Z,9.67
2018-11-20T07:49:06.522Z,11.12
2018-11-20T07:51:55.229Z,10.30
2018-11-20T07:54:43.833Z,10.70
2018-11-20T08:00:14.577Z,10.30
2018-11-20T08:03:04.248Z,10.88
2018-11-20T08:06:11.946Z,9.40
2018-11-20T08:09:00.583Z,9.30
2018-11-20T08:11:49.231Z,10.65
2018-11-20T08:14:37.885Z,9.20
2018-11-20T08:17:14.428Z,8.03
2018-11-20T08:20:03.115Z,9.97
2018-11-20T08:22:51.837Z,10.45
2018-11-20T08:25:40.502Z,9.40
2018-11-20T08:28:28.261Z,11.10
2018-11-20T08:31:09.315Z,8.60
2018-11-20T08:33:57.884Z,9.13
2018-11-20T08:36:46.747Z,9.58
2018-11-20T08:39:35.511Z,9.77
2018-11-20T08:42:24.261Z,10.43
2018-11-20T08:45:07.969Z,9.87
2018-11-20T08:47:56.929Z,8.53
2018-11-20T08:50:45.654Z,11.30
2018-11-20T08:53:34.366Z,10.80
2018-11-20T08:56:22.933Z,11.60
2018-11-20T08:59:11.597Z,9.37
2018-11-20T09:02:00.223Z,9.10
2018-11-20T09:04:49.158Z,9.43
2018-11-20T09:07:37.885Z,9.65
2018-11-20T09:10:26.560Z,11.17
2018-11-20T09:13:15.402Z,11.78
2018-11-20T09:15:55.083Z,9.63
2018-11-20T09:18:43.698Z,9.67
2018-11-20T09:21:32.364Z,9.53
2018-11-20T09:24:21.963Z,7.50
2018-11-20T09:27:10.808Z,9.70
2018-11-20T09:29:59.537Z,9.20
2018-11-20T09:32:48.189Z,9.90
2018-11-20T09:35:37.817Z,10.53
2018-11-20T09:38:26.209Z,10.23
2018-11-20T09:41:14.866Z,9.95
2018-11-20T09:44:41.576Z,8.80
2018-11-20T09:47:49.228Z,8.00
2018-11-20T09:50:38.784Z,10.38
2018-11-20T09:53:27.445Z,6.92
2018-11-20T09:56:16.097Z,10.40
2018-11-20T09:59:04.971Z,9.60
2018-11-20T10:01:53.644Z,9.40
2018-11-20T10:04:42.399Z,10.10
2018-11-20T10:07:31.073Z,9.20
2018-11-20T10:10:19.775Z,9.87
2018-11-20T10:13:08.440Z,8.07
2018-11-20T10:15:57.124Z,8.60
2018-11-20T10:18:45.711Z,10.77
2018-11-20T10:24:26.039Z,8.25
2018-11-20T10:27:14.691Z,8.93
2018-11-20T10:30:03.316Z,9.70
2018-11-20T10:32:52.225Z,10.10
2018-11-20T10:35:41.079Z,11.00
2018-11-20T10:38:29.725Z,7.77
2018-11-20T10:41:08.377Z,9.33
2018-11-20T10:43:57.293Z,10.13
2018-11-20T10:46:46.024Z,9.30
2018-11-20T10:49:34.620Z,11.20
2018-11-20T10:52:23.292Z,8.93
2018-11-20T10:55:02.088Z,9.13
2018-11-20T10:57:50.721Z,9.97
2018-11-20T11:00:39.351Z,9.83
2018-11-20T11:03:28.263Z,8.43
2018-11-20T11:06:16.969Z,10.05
2018-11-20T11:09:06.241Z,8.75
2018-11-20T11:11:56.118Z,9.30
2018-11-20T11:14:44.845Z,10.03
2018-11-20T11:17:33.447Z,8.30
2018-11-20T11:20:22.282Z,9.70
2018-11-20T11:23:10.752Z,9.73
2018-11-20T11:25:59.492Z,9.50
2018-11-20T11:31:29.366Z,7.90
2018-11-20T11:34:10.958Z,9.13
2018-11-20T11:36:54.463Z,8.53
2018-11-20T11:39:43.123Z,9.50
2018-11-20T11:45:46.066Z,9.30
2018-11-20T11:48:34.718Z,7.87
2018-11-20T11:51:41.135Z,9.83
2018-11-20T11:54:29.783Z,9.33
2018-11-20T11:57:18.485Z,8.87
2018-11-20T12:00:07.156Z,9.93
2018-11-20T12:05:58.692Z,7.90
2018-11-20T12:08:47.389Z,8.07
2018-11-20T12:11:36.037Z,8.67
2018-11-20T12:14:24.771Z,9.23
2018-11-20T12:17:13.454Z,11.80
2018-11-20T12:20:02.121Z,9.60
2018-11-20T12:22:50.880Z,11.27
2018-11-20T12:25:39.541Z,9.50
2018-11-20T12:28:28.469Z,8.80
2018-11-20T12:31:17.145Z,12.50
2018-11-20T12:34:05.773Z,9.87
2018-11-20T12:36:54.413Z,8.40
2018-11-20T12:39:43.044Z,10.27
2018-11-20T12:42:31.740Z,9.37
2018-11-20T12:45:20.385Z,10.57
2018-11-20T12:48:09.038Z,9.33
2018-11-20T12:50:57.670Z,9.97
2018-11-20T12:53:46.309Z,9.23
2018-11-20T12:56:34.975Z,9.25
2018-11-20T12:59:23.608Z,8.60
2018-11-20T13:02:12.753Z,8.87
2018-11-20T13:05:01.386Z,8.30
2018-11-20T13:07:43.010Z,8.10
2018-11-20T13:10:31.652Z,6.47
2018-11-20T13:13:20.321Z,10.00
2018-11-20T13:16:09.195Z,8.80
2018-11-20T13:18:57.935Z,9.50
2018-11-20T13:21:49.755Z,9.05
2018-11-20T13:24:36.113Z,9.07
2018-11-20T13:27:24.876Z,10.07
2018-11-20T13:30:13.765Z,11.68
2018-11-20T13:33:02.447Z,9.10
2018-11-20T13:35:51.081Z,10.40
2018-11-20T13:38:39.943Z,11.23
2018-11-20T13:41:51.896Z,8.40
2018-11-20T13:44:39.663Z,7.72
2018-11-20T13:47:27.212Z,10.53
2018-11-20T13:50:34.855Z,9.73
2018-11-20T13:53:36.158Z,9.60
2018-11-20T13:56:25.063Z,10.03
2018-11-20T14:04:57.411Z,10.37
2018-11-20T14:07:40.685Z,9.07
2018-11-20T14:10:30.307Z,10.37
2018-11-20T14:13:18.933Z,8.73
2018-11-20T14:16:07.563Z,9.13
2018-11-20T14:18:56.254Z,9.70
2018-11-20T14:21:44.903Z,10.80
2018-11-20T14:27:14.999Z,11.12
2018-11-20T14:30:03.638Z,10.13
2018-11-20T14:32:52.294Z,10.60
2018-11-20T14:35:37.806Z,11.83
2018-11-20T14:38:26.651Z,10.60
2018-11-20T14:41:15.276Z,10.07
2018-11-20T14:44:03.937Z,10.32
2018-11-20T14:46:52.706Z,11.57
2018-11-20T14:49:41.564Z,10.87
2018-11-20T14:52:42.249Z,9.60
2018-11-20T14:55:31.129Z,10.45
2018-11-20T14:58:19.789Z,9.10
2018-11-20T15:01:08.435Z,11.43
2018-11-20T15:03:57.412Z,11.33
2018-11-20T15:06:46.545Z,10.25
2018-11-20T15:09:34.903Z,11.67
2018-11-20T15:12:23.764Z,11.97
2018-11-20T15:15:12.460Z,10.50
2018-11-20T15:18:02.478Z,13.18
2018-11-20T15:20:51.193Z,11.97
2018-11-20T15:23:27.343Z,12.75
2018-11-20T15:26:16.084Z,13.00
2018-11-20T15:29:04.698Z,12.73
2018-11-20T15:31:53.567Z,11.87
2018-11-20T15:34:42.220Z,11.53
2018-11-20T15:40:33.306Z,9.80
2018-11-20T15:43:41.434Z,14.57
2018-11-20T15:46:30.087Z,11.73
2018-11-20T15:49:18.791Z,11.60
2018-11-20T15:52:07.705Z,11.97
2018-11-20T15:54:56.339Z,11.43
2018-11-20T15:57:45.011Z,10.40
2018-11-20T16:00:33.662Z,11.80
2018-11-20T16:06:25.493Z,9.60
2018-11-20T16:09:14.147Z,11.20
2018-11-20T16:12:02.807Z,12.78
2018-11-20T16:14:51.553Z,13.33
2018-11-20T16:17:40.451Z,12.50
2018-11-20T16:20:29.114Z,13.00
2018-11-20T16:23:18.254Z,12.67
2018-11-20T16:26:06.954Z,11.53
2018-11-20T16:28:55.798Z,10.15
2018-11-20T16:31:44.418Z,11.12
2018-11-20T16:34:33.488Z,13.83
2018-11-20T16:37:22.171Z,11.80
2018-11-20T16:40:10.894Z,11.03
2018-11-20T16:42:59.835Z,14.95
2018-11-20T16:45:48.479Z,11.77
2018-11-20T16:48:37.413Z,11.70
2018-11-20T16:51:26.239Z,11.70
2018-11-20T16:54:14.855Z,11.53
2018-11-20T16:57:03.542Z,16.67
2018-11-20T17:00:11.283Z,12.67
2018-11-20T17:02:59.993Z,11.60
2018-11-20T17:05:54.934Z,13.43
2018-11-20T17:11:35.874Z,11.30
2018-11-20T17:14:15.261Z,12.57
2018-11-20T17:17:03.973Z,11.43
2018-11-20T17:19:52.668Z,11.65
2018-11-20T17:22:48.840Z,13.53
2018-11-20T17:25:37.492Z,12.37
2018-11-20T17:28:26.722Z,12.97
2018-11-20T17:31:15.717Z,14.40
2018-11-20T17:34:04.644Z,11.70
2018-11-20T17:36:54.233Z,15.35
2018-11-20T17:39:42.881Z,15.13
2018-11-20T17:42:31.604Z,14.03
2018-11-20T17:45:09.485Z,12.63
2018-11-20T17:47:58.286Z,12.70
2018-11-20T17:50:47.662Z,17.47
2018-11-20T17:53:36.431Z,10.73
2018-11-20T17:56:25.733Z,11.60
2018-11-20T17:59:14.490Z,13.83
2018-11-20T18:02:03.285Z,14.90
2018-11-20T18:04:51.921Z,14.30
2018-11-20T18:07:40.594Z,14.40
2018-11-20T18:10:29.512Z,16.52
2018-11-20T18:13:18.264Z,11.83
2018-11-20T18:16:06.983Z,11.70
2018-11-20T18:18:55.613Z,12.20
2018-11-20T18:21:44.570Z,14.53
2018-11-20T18:24:33.268Z,13.10
2018-11-20T18:27:22.131Z,13.93
2018-11-20T18:30:10.763Z,12.80
2018-11-20T18:32:59.613Z,11.50
2018-11-20T18:35:48.287Z,18.55
2018-11-20T18:38:46.103Z,12.53
2018-11-20T18:41:35.581Z,15.35
2018-11-20T18:44:24.418Z,14.53
2018-11-20T18:47:13.295Z,13.73
2018-11-20T18:49:49.354Z,11.67
2018-11-20T18:52:38.288Z,12.77
2018-11-20T18:55:27.130Z,13.00
2018-11-20T18:58:15.747Z,14.33
2018-11-20T19:01:04.423Z,15.93
2018-11-20T19:03:53.117Z,12.80
2018-11-20T19:06:41.811Z,14.93
2018-11-20T19:09:30.476Z,14.73
2018-11-20T19:12:11.611Z,13.97
2018-11-20T19:15:00.294Z,13.57
2018-11-20T19:17:48.941Z,14.10
2018-11-20T19:20:37.643Z,14.07
2018-11-20T19:23:18.101Z,12.40
2018-11-20T19:26:06.752Z,14.57
2018-11-20T19:28:55.452Z,14.58
2018-11-20T19:31:48.514Z,12.35
2018-11-20T19:34:33.488Z,12.10
2018-11-20T19:37:15.396Z,12.80
2018-11-20T19:40:00.032Z,14.73
2018-11-20T19:43:07.754Z,15.87
2018-11-20T19:45:56.463Z,14.30
2018-11-20T19:51:47.909Z,13.87
2018-11-20T19:54:36.781Z,14.90
2018-11-20T19:57:19.696Z,12.93
2018-11-20T20:00:08.470Z,14.13
2018-11-20T20:02:57.303Z,17.20
2018-11-20T20:05:41.078Z,16.25
2018-11-20T20:08:29.742Z,15.98
2018-11-20T20:11:18.873Z,15.10
2018-11-20T20:14:07.566Z,14.27
2018-11-20T20:16:56.271Z,14.40
2018-11-20T20:19:45.352Z,15.35
2018-11-20T20:22:34.015Z,13.90
2018-11-20T20:25:22.737Z,15.93
2018-11-20T20:28:11.428Z,15.10
2018-11-20T20:31:00.126Z,15.83
2018-11-20T20:33:48.820Z,13.10
2018-11-20T20:36:37.495Z,14.80
2018-11-20T20:39:28.779Z,13.55
2018-11-20T20:42:17.452Z,15.57
2018-11-20T20:48:02.354Z,12.83
2018-11-20T20:50:42.415Z,13.33
2018-11-20T20:53:31.282Z,13.40
2018-11-20T20:56:19.934Z,14.40
2018-11-20T20:59:08.656Z,17.65
2018-11-20T21:01:57.437Z,14.10
2018-11-20T21:04:46.105Z,16.02
2018-11-20T21:07:34.825Z,16.87
2018-11-20T21:10:23.956Z,16.20
2018-11-20T21:13:12.584Z,19.00
2018-11-20T21:16:01.952Z,16.87
2018-11-20T21:18:50.573Z,15.10
2018-11-20T21:21:29.821Z,13.40
2018-11-20T21:24:18.541Z,16.53
2018-11-20T21:27:07.202Z,16.20
2018-11-20T21:29:56.062Z,16.87
2018-11-20T21:32:44.683Z,17.07
2018-11-20T21:35:33.331Z,20.20
2018-11-20T21:38:29.036Z,16.53
2018-11-20T21:41:17.709Z,16.60
2018-11-20T21:43:55.118Z,18.27
2018-11-20T21:46:43.832Z,16.62
2018-11-20T21:49:32.531Z,18.40
2018-11-20T21:52:21.206Z,14.77
2018-11-20T21:55:09.911Z,19.20
2018-11-20T21:57:58.556Z,16.77
2018-11-20T22:01:09.038Z,16.13
2018-11-20T22:03:58.497Z,16.17
2018-11-20T22:06:47.287Z,16.42
2018-11-20T22:09:36.061Z,17.25
2018-11-20T22:12:19.809Z,17.70
2018-11-20T22:15:00.973Z,17.17
2018-11-20T22:17:49.610Z,16.37
2018-11-20T22:20:38.247Z,15.70
2018-11-20T22:23:26.948Z,16.50
2018-11-20T22:26:15.778Z,18.20
2018-11-20T22:29:04.473Z,18.07
2018-11-20T22:31:53.104Z,18.47
2018-11-20T22:34:41.812Z,15.90
2018-11-20T22:37:30.469Z,18.27
2018-11-20T22:40:11.694Z,16.57
2018-11-20T22:43:00.383Z,16.80
2018-11-20T22:45:42.751Z,17.27
2018-11-20T22:48:31.419Z,17.97
2018-11-20T22:51:20.340Z,17.20
2018-11-20T22:54:09.001Z,16.87
2018-11-20T22:56:57.795Z,20.23
2018-11-20T22:59:46.715Z,16.53
2018-11-20T23:02:24.747Z,17.20
2018-11-20T23:05:12.768Z,19.73
2018-11-20T23:08:02.104Z,17.32
2018-11-20T23:10:31.994Z,18.60
2018-11-20T23:18:56.057Z,17.50
2018-11-20T23:21:25.989Z,16.40
2018-11-20T23:23:56.029Z,17.87
2018-11-20T23:26:26.009Z,17.95
2018-11-20T23:28:56.086Z,15.53
2018-11-20T23:31:44.997Z,15.08
2018-11-20T23:34:14.942Z,16.17
2018-11-20T23:37:03.570Z,21.67
2018-11-20T23:39:33.502Z,18.67
2018-11-20T23:42:03.416Z,15.60
2018-11-20T23:44:33.416Z,16.20
2018-11-20T23:47:03.878Z,15.70
2018-11-20T23:49:34.181Z,16.30
2018-11-20T23:52:22.806Z,15.73
2018-11-20T23:54:52.716Z,15.97
2018-11-20T23:57:22.600Z,16.20
2018-11-20T23:59:52.573Z,15.50
